createdAt,value
2018-01-21T00:00:24.639Z,4.73
2018-01-21T00:02:56.848Z,4.13
2018-01-21T00:05:25.259Z,3.80
2018-01-21T00:07:53.602Z,3.93
2018-01-21T00:10:21.988Z,3.60
2018-01-21T00:12:50.358Z,2.90
2018-01-21T00:15:23.669Z,2.73
2018-01-21T00:17:55.389Z,1.80
2018-01-21T00:20:24.108Z,2.10
2018-01-21T00:22:54.303Z,1.50
2018-01-21T00:25:24.559Z,1.70
2018-01-21T00:27:55.976Z,1.80
2018-01-21T00:30:26.259Z,1.40
2018-01-21T00:32:54.592Z,1.67
2018-01-21T00:35:23.002Z,1.30
2018-01-21T00:37:51.371Z,1.50
2018-01-21T00:40:22.799Z,1.37
2018-01-21T00:42:53.066Z,1.50
2018-01-21T00:45:21.412Z,1.80
2018-01-21T00:47:50.711Z,1.80
2018-01-21T00:50:20.030Z,1.80
2018-01-21T00:52:48.427Z,1.70
2018-01-21T00:55:20.245Z,2.07
2018-01-21T00:57:48.528Z,1.87
2018-01-21T01:00:16.929Z,1.60
2018-01-21T01:02:45.339Z,1.20
2018-01-21T01:05:15.585Z,1.70
2018-01-21T01:07:45.735Z,1.50
2018-01-21T01:10:14.132Z,1.70
2018-01-21T01:12:42.506Z,1.70
2018-01-21T01:15:10.882Z,1.87
2018-01-21T01:17:39.348Z,1.90
2018-01-21T01:20:08.561Z,1.90
2018-01-21T01:22:36.943Z,1.80
2018-01-21T01:25:05.320Z,1.77
2018-01-21T01:27:33.701Z,1.97
2018-01-21T01:30:02.114Z,1.70
2018-01-21T01:32:33.191Z,2.07
2018-01-21T01:35:05.027Z,1.90
2018-01-21T01:37:33.368Z,1.93
2018-01-21T01:40:01.750Z,2.00
2018-01-21T01:42:30.145Z,2.13
2018-01-21T01:45:00.349Z,2.00
2018-01-21T01:47:30.595Z,2.60
2018-01-21T01:49:59.866Z,2.17
2018-01-21T01:52:28.256Z,2.30
2018-01-21T01:54:59.731Z,2.50
2018-01-21T01:57:27.985Z,2.73
2018-01-21T01:59:56.486Z,2.17
2018-01-21T02:02:24.871Z,2.40
2018-01-21T02:04:53.222Z,2.17
2018-01-21T02:07:21.607Z,2.13
2018-01-21T02:09:50.026Z,2.23
2018-01-21T02:12:20.215Z,2.60
2018-01-21T02:14:48.599Z,2.60
2018-01-21T02:17:22.177Z,1.70
2018-01-21T02:19:50.579Z,2.73
2018-01-21T02:22:24.752Z,1.80
2018-01-21T02:24:53.818Z,2.40
2018-01-21T02:27:28.252Z,2.90
2018-01-21T02:29:56.696Z,2.57
2018-01-21T02:32:26.917Z,2.40
2018-01-21T02:34:55.301Z,2.50
2018-01-21T02:37:23.696Z,2.00
2018-01-21T02:39:56.654Z,2.43
2018-01-21T02:42:29.663Z,3.10
2018-01-21T02:45:02.332Z,2.67
2018-01-21T02:47:31.639Z,2.20
2018-01-21T02:50:03.057Z,2.00
2018-01-21T02:52:31.465Z,2.27
2018-01-21T02:54:59.857Z,2.50
2018-01-21T02:57:28.242Z,2.63
2018-01-21T02:59:57.074Z,2.60
2018-01-21T03:02:26.204Z,2.57
2018-01-21T03:04:54.858Z,2.43
2018-01-21T03:07:23.899Z,3.10
2018-01-21T03:09:52.297Z,2.60
2018-01-21T03:12:20.576Z,2.87
2018-01-21T03:14:49.042Z,2.53
2018-01-21T03:17:17.421Z,2.30
2018-01-21T03:19:46.732Z,2.50
2018-01-21T03:22:15.032Z,2.73
2018-01-21T03:24:43.557Z,2.90
2018-01-21T03:27:12.081Z,2.70
2018-01-21T03:29:40.519Z,2.70
2018-01-21T03:32:08.912Z,3.17
2018-01-21T03:34:37.874Z,2.70
2018-01-21T03:37:06.303Z,3.00
2018-01-21T03:39:38.385Z,2.60
2018-01-21T03:42:13.493Z,3.30
2018-01-21T03:44:46.850Z,3.23
2018-01-21T03:47:15.931Z,2.83
2018-01-21T03:49:44.702Z,2.93
2018-01-21T03:52:13.823Z,2.90
2018-01-21T03:54:42.324Z,2.77
2018-01-21T03:57:11.375Z,3.20
2018-01-21T03:59:39.847Z,2.70
2018-01-21T04:02:08.098Z,3.17
2018-01-21T04:04:36.390Z,2.80
2018-01-21T04:07:06.845Z,3.73
2018-01-21T04:09:36.171Z,3.10
2018-01-21T04:12:05.445Z,3.03
2018-01-21T04:14:37.545Z,3.20
2018-01-21T04:17:10.170Z,3.03
2018-01-21T04:19:38.595Z,2.83
2018-01-21T04:22:06.934Z,2.53
2018-01-21T04:24:35.315Z,3.17
2018-01-21T04:27:04.921Z,3.40
2018-01-21T04:29:33.324Z,3.37
2018-01-21T04:32:02.080Z,2.93
2018-01-21T04:34:30.576Z,3.13
2018-01-21T04:36:59.975Z,2.80
2018-01-21T04:39:28.430Z,2.70
2018-01-21T04:41:57.701Z,3.40
2018-01-21T04:44:27.913Z,3.47
2018-01-21T04:46:56.873Z,2.70
2018-01-21T04:49:25.982Z,3.13
2018-01-21T04:52:00.208Z,3.47
2018-01-21T04:54:28.585Z,3.90
2018-01-21T04:56:56.852Z,4.00
2018-01-21T04:59:25.221Z,3.50
2018-01-21T05:01:54.416Z,3.93
2018-01-21T05:04:22.687Z,3.20
2018-01-21T05:06:51.011Z,3.60
2018-01-21T05:09:19.361Z,3.60
2018-01-21T05:11:48.684Z,3.17
2018-01-21T05:14:17.051Z,3.77
2018-01-21T05:16:46.372Z,3.40
2018-01-21T05:19:14.748Z,3.50
2018-01-21T05:21:43.434Z,3.57
2018-01-21T05:24:12.252Z,3.60
2018-01-21T05:26:42.624Z,3.60
2018-01-21T05:29:12.881Z,3.20
2018-01-21T05:31:41.227Z,3.17
2018-01-21T05:34:12.732Z,3.90
2018-01-21T05:36:42.926Z,3.60
2018-01-21T05:39:11.290Z,3.27
2018-01-21T05:41:39.696Z,3.70
2018-01-21T05:44:09.890Z,3.40
2018-01-21T05:46:38.280Z,3.70
2018-01-21T05:49:06.687Z,3.87
2018-01-21T05:51:38.731Z,2.87
2018-01-21T05:54:07.123Z,3.40
2018-01-21T05:56:36.396Z,3.30
2018-01-21T05:59:04.793Z,3.67
2018-01-21T06:01:33.171Z,3.30
2018-01-21T06:04:04.726Z,2.70
2018-01-21T06:06:35.200Z,3.60
2018-01-21T06:09:03.535Z,2.93
2018-01-21T06:11:32.830Z,3.90
2018-01-21T06:14:01.250Z,3.37
2018-01-21T06:16:29.593Z,3.67
2018-01-21T06:18:57.872Z,3.87
2018-01-21T06:21:26.368Z,3.17
2018-01-21T06:23:54.715Z,2.70
2018-01-21T06:26:24.038Z,3.07
2018-01-21T06:28:53.340Z,3.53
2018-01-21T06:31:21.740Z,3.27
2018-01-21T06:33:50.512Z,3.67
2018-01-21T06:36:19.731Z,4.30
2018-01-21T06:38:48.082Z,3.60
2018-01-21T06:41:17.430Z,3.70
2018-01-21T06:43:49.778Z,3.90
2018-01-21T06:46:18.189Z,3.77
2018-01-21T06:48:46.540Z,4.50
2018-01-21T06:51:21.332Z,4.10
2018-01-21T06:53:50.474Z,3.60
2018-01-21T06:56:18.775Z,4.00
2018-01-21T06:58:47.201Z,4.23
2018-01-21T07:01:17.660Z,4.50
2018-01-21T07:03:46.075Z,3.90
2018-01-21T07:06:15.409Z,4.13
2018-01-21T07:08:45.914Z,3.87
2018-01-21T07:11:15.166Z,4.30
2018-01-21T07:13:43.549Z,4.13
2018-01-21T07:16:11.932Z,3.93
2018-01-21T07:18:45.585Z,4.30
2018-01-21T07:21:16.097Z,3.83
2018-01-21T07:23:44.431Z,4.15
2018-01-21T07:26:18.391Z,4.17
2018-01-21T07:28:47.682Z,4.03
2018-01-21T07:31:16.093Z,4.93
2018-01-21T07:33:44.415Z,5.10
2018-01-21T07:36:12.825Z,5.10
2018-01-21T07:38:42.166Z,4.40
2018-01-21T07:41:10.605Z,5.70
2018-01-21T07:43:40.091Z,5.67
2018-01-21T07:46:08.509Z,4.57
2018-01-21T07:48:37.746Z,4.80
2018-01-21T07:51:09.244Z,4.90
2018-01-21T07:53:37.623Z,4.83
2018-01-21T07:56:06.076Z,5.78
2018-01-21T07:58:35.353Z,5.07
2018-01-21T08:01:07.348Z,5.05
2018-01-21T08:03:39.446Z,4.97
2018-01-21T08:06:13.894Z,5.73
2018-01-21T08:08:45.493Z,4.60
2018-01-21T08:11:13.780Z,5.03
2018-01-21T08:13:44.310Z,5.90
2018-01-21T08:16:12.701Z,5.47
2018-01-21T08:18:41.041Z,5.53
2018-01-21T08:21:09.442Z,6.00
2018-01-21T08:23:38.742Z,4.50
2018-01-21T08:26:07.151Z,5.50
2018-01-21T08:28:35.429Z,6.13
2018-01-21T08:31:05.003Z,5.40
2018-01-21T08:33:33.481Z,5.23
2018-01-21T08:36:07.335Z,4.87
2018-01-21T08:38:41.269Z,7.33
2018-01-21T08:41:15.477Z,7.80
2018-01-21T08:43:45.728Z,5.80
2018-01-21T08:46:17.813Z,4.37
2018-01-21T08:48:51.718Z,4.23
2018-01-21T08:51:23.486Z,4.27
2018-01-21T08:53:51.839Z,4.27
2018-01-21T08:56:20.214Z,4.23
2018-01-21T08:58:49.880Z,4.70
2018-01-21T09:01:18.218Z,4.20
2018-01-21T09:03:50.933Z,3.77
2018-01-21T09:06:19.283Z,3.83
2018-01-21T09:08:47.670Z,4.33
2018-01-21T09:11:19.434Z,4.40
2018-01-21T09:13:47.795Z,3.83
2018-01-21T09:16:16.178Z,3.63
2018-01-21T09:18:47.638Z,3.70
2018-01-21T09:21:19.377Z,3.30
2018-01-21T09:23:47.793Z,2.90
2018-01-21T09:26:16.152Z,3.37
2018-01-21T09:28:47.933Z,3.17
2018-01-21T09:31:16.302Z,3.40
2018-01-21T09:33:44.706Z,2.60
2018-01-21T09:36:16.765Z,3.30
2018-01-21T09:38:49.426Z,3.90
2018-01-21T09:41:18.231Z,4.97
2018-01-21T09:43:48.626Z,3.03
2018-01-21T09:46:21.317Z,2.73
2018-01-21T09:48:49.685Z,3.00
2018-01-21T09:51:18.064Z,3.50
2018-01-21T09:53:49.838Z,2.83
2018-01-21T09:56:18.214Z,3.40
2018-01-21T09:58:46.613Z,3.27
2018-01-21T10:01:18.361Z,3.47
2018-01-21T10:03:46.742Z,2.93
2018-01-21T10:06:15.121Z,3.23
2018-01-21T10:08:46.580Z,3.67
2018-01-21T10:11:14.968Z,3.37
2018-01-21T10:13:43.316Z,3.30
2018-01-21T10:16:11.706Z,4.57
2018-01-21T10:18:44.073Z,4.20
2018-01-21T10:21:12.450Z,3.13
2018-01-21T10:23:40.859Z,3.17
2018-01-21T10:26:09.255Z,2.80
2018-01-21T10:28:37.614Z,3.33
2018-01-21T10:31:05.985Z,3.20
2018-01-21T10:33:34.378Z,3.20
2018-01-21T10:36:02.729Z,3.30
2018-01-21T10:38:31.142Z,3.37
2018-01-21T10:41:03.181Z,3.17
2018-01-21T10:43:31.625Z,2.80
2018-01-21T10:46:03.977Z,3.60
2018-01-21T10:48:35.709Z,3.57
2018-01-21T10:51:05.021Z,2.97
2018-01-21T10:53:36.767Z,2.77
2018-01-21T10:56:05.156Z,2.50
2018-01-21T10:58:33.533Z,2.97
2018-01-21T11:01:01.928Z,2.97
2018-01-21T11:03:31.199Z,2.63
2018-01-21T11:05:59.585Z,3.07
2018-01-21T11:08:31.634Z,2.53
2018-01-21T11:11:01.041Z,2.40
2018-01-21T11:13:31.506Z,2.17
2018-01-21T11:15:59.882Z,2.90
2018-01-21T11:18:30.088Z,2.47
2018-01-21T11:20:58.493Z,2.63
2018-01-21T11:23:30.529Z,3.13
2018-01-21T11:25:58.930Z,2.93
2018-01-21T11:28:30.358Z,3.03
2018-01-21T11:31:05.217Z,3.10
2018-01-21T11:33:33.571Z,2.40
2018-01-21T11:36:01.953Z,2.80
2018-01-21T11:38:30.348Z,2.40
2018-01-21T11:41:02.114Z,1.97
2018-01-21T11:43:30.514Z,3.40
2018-01-21T11:45:58.875Z,2.63
2018-01-21T11:48:30.972Z,3.17
2018-01-21T11:51:02.974Z,2.95
2018-01-21T11:53:31.372Z,2.60
2018-01-21T11:56:06.462Z,2.80
2018-01-21T11:58:38.598Z,32.93
2018-01-21T12:01:06.957Z,4.73
2018-01-21T12:03:35.327Z,3.53
2018-01-21T12:06:06.818Z,2.87
2018-01-21T12:08:37.350Z,2.77
2018-01-21T12:11:10.636Z,2.87
2018-01-21T12:13:38.999Z,2.70
2018-01-21T12:16:10.324Z,2.60
2018-01-21T12:18:38.606Z,2.40
2018-01-21T12:21:06.932Z,2.40
2018-01-21T12:23:35.313Z,2.30
2018-01-21T12:26:07.054Z,1.97
2018-01-21T12:28:36.170Z,2.80
2018-01-21T12:31:09.661Z,2.60
2018-01-21T12:33:39.362Z,4.83
2018-01-21T12:36:07.690Z,2.53
2018-01-21T12:38:36.921Z,2.63
2018-01-21T12:41:09.664Z,2.90
2018-01-21T12:43:38.895Z,2.13
2018-01-21T12:46:13.141Z,2.10
2018-01-21T12:48:41.523Z,2.50
2018-01-21T12:51:09.860Z,2.20
2018-01-21T12:53:38.257Z,2.17
2018-01-21T12:56:10.038Z,2.80
2018-01-21T12:58:38.823Z,2.13
2018-01-21T13:01:07.083Z,2.30
2018-01-21T13:03:35.471Z,2.13
2018-01-21T13:06:03.869Z,1.87
2018-01-21T13:08:32.241Z,2.07
2018-01-21T13:11:04.022Z,2.23
2018-01-21T13:13:32.351Z,1.83
2018-01-21T13:16:00.744Z,1.90
2018-01-21T13:18:29.144Z,2.90
2018-01-21T13:21:02.738Z,2.13
2018-01-21T13:23:34.810Z,2.30
2018-01-21T13:26:06.869Z,2.40
2018-01-21T13:28:35.266Z,2.40
2018-01-21T13:31:03.628Z,3.17
2018-01-21T13:33:32.928Z,4.30
2018-01-21T13:36:01.331Z,2.50
2018-01-21T13:38:33.373Z,2.20
2018-01-21T13:41:02.694Z,2.03
2018-01-21T13:43:34.431Z,2.23
2018-01-21T13:46:02.824Z,2.43
2018-01-21T13:48:31.202Z,2.47
2018-01-21T13:50:59.557Z,1.80
2018-01-21T13:53:27.981Z,1.90
2018-01-21T13:55:56.330Z,2.10
2018-01-21T13:58:24.718Z,1.83
2018-01-21T14:00:57.731Z,1.97
2018-01-21T14:03:26.074Z,2.37
2018-01-21T14:05:58.800Z,2.40
2018-01-21T14:08:27.183Z,2.80
2018-01-21T14:10:58.641Z,2.20
2018-01-21T14:13:30.356Z,2.63
2018-01-21T14:15:58.763Z,2.90
2018-01-21T14:18:27.146Z,2.07
2018-01-21T14:21:02.234Z,2.50
2018-01-21T14:23:34.382Z,2.33
2018-01-21T14:26:02.694Z,3.30
2018-01-21T14:28:31.100Z,2.57
2018-01-21T14:31:04.422Z,3.07
2018-01-21T14:33:32.757Z,2.60
2018-01-21T14:36:04.871Z,2.37
2018-01-21T14:38:33.215Z,2.50
2018-01-21T14:41:01.559Z,3.00
2018-01-21T14:43:34.008Z,2.40
2018-01-21T14:46:02.334Z,2.60
2018-01-21T14:48:30.709Z,2.60
2018-01-21T14:51:03.716Z,2.20
2018-01-21T14:53:32.091Z,2.13
2018-01-21T14:56:03.564Z,2.30
2018-01-21T14:58:35.612Z,2.30
2018-01-21T15:01:04.007Z,3.57
2018-01-21T15:03:32.384Z,3.17
2018-01-21T15:06:00.765Z,3.47
2018-01-21T15:08:29.440Z,3.20
2018-01-21T15:10:57.812Z,2.90
2018-01-21T15:13:26.252Z,3.03
2018-01-21T15:15:54.600Z,2.60
2018-01-21T15:18:22.950Z,2.30
2018-01-21T15:20:54.453Z,2.37
2018-01-21T15:23:27.429Z,2.27
2018-01-21T15:25:55.796Z,2.60
2018-01-21T15:28:24.146Z,2.67
2018-01-21T15:30:52.562Z,2.73
2018-01-21T15:33:21.003Z,2.63
2018-01-21T15:35:50.242Z,2.93
2018-01-21T15:38:18.626Z,2.60
2018-01-21T15:40:50.053Z,2.40
2018-01-21T15:43:21.819Z,3.00
2018-01-21T15:45:50.180Z,2.60
2018-01-21T15:48:18.613Z,2.43
2018-01-21T15:50:49.098Z,2.00
2018-01-21T15:53:21.782Z,2.20
2018-01-21T15:55:50.162Z,2.47
2018-01-21T15:58:18.540Z,2.73
2018-01-21T16:00:50.005Z,8.90
2018-01-21T16:03:22.080Z,6.17
2018-01-21T16:05:50.832Z,2.40
2018-01-21T16:08:21.267Z,2.60
2018-01-21T16:10:49.654Z,2.53
2018-01-21T16:13:18.066Z,2.60
2018-01-21T16:15:46.440Z,2.90
2018-01-21T16:18:14.807Z,3.03
2018-01-21T16:20:45.036Z,3.53
2018-01-21T16:23:19.844Z,2.57
2018-01-21T16:25:53.194Z,2.80
2018-01-21T16:28:21.538Z,2.50
2018-01-21T16:30:52.985Z,7.57
2018-01-21T16:33:25.063Z,2.60
2018-01-21T16:35:53.457Z,2.17
2018-01-21T16:38:39.453Z,2.50
2018-01-21T16:41:07.735Z,3.20
2018-01-21T16:43:36.069Z,2.43
2018-01-21T16:46:04.466Z,2.90
2018-01-21T16:48:32.867Z,3.77
2018-01-21T16:51:05.522Z,2.73
2018-01-21T16:53:33.905Z,3.37
2018-01-21T16:56:05.361Z,3.00
2018-01-21T16:58:40.162Z,3.27
2018-01-21T17:01:08.558Z,3.10
2018-01-21T17:03:36.966Z,4.23
2018-01-21T17:06:05.392Z,4.77
2018-01-21T17:08:34.623Z,3.37
2018-01-21T17:11:03.034Z,3.20
2018-01-21T17:13:31.396Z,3.20
2018-01-21T17:15:59.926Z,3.37
2018-01-21T17:18:32.150Z,3.00
2018-01-21T17:21:00.509Z,3.60
2018-01-21T17:23:28.900Z,4.33
2018-01-21T17:25:57.290Z,4.80
2018-01-21T17:28:29.043Z,4.50
2018-01-21T17:30:57.481Z,5.17
2018-01-21T17:33:26.735Z,4.87
2018-01-21T17:35:56.980Z,4.67
2018-01-21T17:38:25.633Z,4.40
2018-01-21T17:40:54.031Z,5.00
2018-01-21T17:43:22.800Z,4.63
2018-01-21T17:45:53.235Z,5.10
2018-01-21T17:48:24.697Z,5.10
2018-01-21T17:50:53.176Z,4.70
2018-01-21T17:53:22.696Z,5.00
2018-01-21T17:55:55.439Z,4.47
2018-01-21T17:58:24.662Z,3.80
2018-01-21T18:00:57.054Z,4.13
2018-01-21T18:03:25.391Z,4.40
2018-01-21T18:05:53.808Z,4.03
2018-01-21T18:08:26.865Z,5.27
2018-01-21T18:10:55.218Z,4.00
2018-01-21T18:13:25.687Z,4.40
2018-01-21T18:15:55.009Z,4.20
2018-01-21T18:18:23.391Z,4.43
2018-01-21T18:20:51.763Z,4.20
2018-01-21T18:23:23.859Z,4.67
2018-01-21T18:25:52.296Z,4.63
2018-01-21T18:28:23.048Z,5.10
2018-01-21T18:30:51.432Z,5.20
2018-01-21T18:33:20.767Z,6.00
2018-01-21T18:35:49.120Z,4.83
2018-01-21T18:38:21.781Z,4.77
2018-01-21T18:40:50.187Z,5.30
2018-01-21T18:43:22.232Z,5.23
2018-01-21T18:45:51.547Z,5.73
2018-01-21T18:48:19.927Z,5.27
2018-01-21T18:50:48.286Z,5.67
2018-01-21T18:53:16.676Z,5.80
2018-01-21T18:55:45.049Z,6.10
2018-01-21T18:58:16.854Z,7.33
2018-01-21T19:00:45.201Z,7.07
2018-01-21T19:03:13.561Z,7.80
2018-01-21T19:05:45.055Z,6.33
2018-01-21T19:08:16.801Z,7.17
2018-01-21T19:10:46.145Z,6.50
2018-01-21T19:13:16.627Z,6.97
2018-01-21T19:15:48.709Z,7.33
2018-01-21T19:18:18.911Z,6.20
2018-01-21T19:20:47.290Z,6.80
2018-01-21T19:23:15.702Z,7.43
2018-01-21T19:25:44.089Z,7.70
2018-01-21T19:28:17.356Z,6.73
2018-01-21T19:30:45.709Z,7.00
2018-01-21T19:33:17.806Z,6.20
2018-01-21T19:35:46.187Z,7.43
2018-01-21T19:41:21.156Z,6.93
2018-01-21T19:43:51.483Z,7.70
2018-01-21T19:46:19.963Z,7.10
2018-01-21T19:48:48.347Z,7.60
2018-01-21T19:51:19.780Z,7.30
2018-01-21T19:53:48.470Z,7.93
2018-01-21T19:56:16.813Z,7.73
2018-01-21T19:58:45.198Z,7.80
2018-01-21T20:01:14.619Z,10.07
2018-01-21T20:03:42.894Z,11.20
2018-01-21T20:06:11.294Z,11.37
2018-01-21T20:08:39.664Z,9.40
2018-01-21T20:11:08.034Z,9.77
2018-01-21T20:13:39.833Z,8.80
2018-01-21T20:16:08.167Z,8.27
2018-01-21T20:18:36.577Z,7.70
2018-01-21T20:21:17.564Z,7.30
2018-01-21T20:23:45.927Z,7.80
2018-01-21T20:26:14.393Z,9.37
2018-01-21T20:28:42.661Z,9.73
2018-01-21T20:31:11.045Z,7.80
2018-01-21T20:33:43.147Z,8.87
2018-01-21T20:36:15.794Z,7.00
2018-01-21T20:38:44.182Z,7.90
2018-01-21T20:41:15.942Z,7.53
2018-01-21T20:43:45.273Z,7.83
2018-01-21T20:46:13.638Z,7.27
2018-01-21T20:48:45.695Z,7.10
2018-01-21T20:51:19.498Z,7.70
2018-01-21T20:53:53.466Z,7.93
2018-01-21T20:56:24.659Z,8.13
2018-01-21T20:58:54.900Z,7.13
2018-01-21T21:01:23.285Z,7.07
2018-01-21T21:03:51.627Z,8.17
2018-01-21T21:06:20.022Z,8.17
2018-01-21T21:08:51.778Z,7.07
2018-01-21T21:11:20.412Z,9.17
2018-01-21T21:13:49.443Z,8.50
2018-01-21T21:16:23.663Z,8.80
2018-01-21T21:18:52.059Z,8.77
2018-01-21T21:21:20.438Z,9.23
2018-01-21T21:23:48.826Z,8.50
2018-01-21T21:26:17.213Z,9.03
2018-01-21T21:28:45.585Z,9.27
2018-01-21T21:31:13.943Z,8.67
2018-01-21T21:33:45.437Z,8.00
2018-01-21T21:36:17.772Z,6.57
2018-01-21T21:38:46.170Z,6.77
2018-01-21T21:41:14.579Z,6.53
2018-01-21T21:43:47.551Z,7.30
2018-01-21T21:46:15.886Z,6.57
2018-01-21T21:48:48.936Z,6.70
2018-01-21T21:51:17.269Z,6.33
2018-01-21T21:53:45.684Z,5.80
2018-01-21T21:56:15.898Z,5.27
2018-01-21T21:58:47.633Z,6.73
2018-01-21T22:01:16.050Z,5.87
2018-01-21T22:03:44.396Z,6.20
2018-01-21T22:06:13.683Z,5.90
2018-01-21T22:08:42.099Z,5.90
2018-01-21T22:11:10.443Z,6.93
2018-01-21T22:13:42.569Z,9.70
2018-01-21T22:16:10.917Z,6.80
2018-01-21T22:18:39.277Z,6.03
2018-01-21T22:21:08.609Z,5.60
2018-01-21T22:23:36.935Z,5.57
2018-01-21T22:26:07.525Z,6.17
2018-01-21T22:28:37.725Z,11.63
2018-01-21T22:31:06.097Z,6.43
2018-01-21T22:33:34.464Z,6.70
2018-01-21T22:36:02.855Z,6.27
2018-01-21T22:38:31.250Z,5.83
2018-01-21T22:41:03.947Z,6.57
2018-01-21T22:43:32.294Z,6.13
2018-01-21T22:46:04.384Z,5.93
2018-01-21T22:48:38.280Z,6.70
2018-01-21T22:51:10.312Z,6.23
2018-01-21T22:53:39.350Z,5.67
2018-01-21T22:56:07.741Z,6.40
2018-01-21T22:58:37.980Z,5.73
2018-01-21T23:01:09.711Z,6.40
2018-01-21T23:03:38.101Z,6.03
2018-01-21T23:06:06.469Z,6.83
2018-01-21T23:08:34.838Z,5.80
2018-01-21T23:11:06.952Z,5.73
2018-01-21T23:13:35.298Z,6.25
2018-01-21T23:16:03.643Z,6.20
2018-01-21T23:18:32.071Z,6.00
2018-01-21T23:21:03.192Z,6.63
2018-01-21T23:23:31.596Z,5.70
2018-01-21T23:25:59.961Z,5.10
2018-01-21T23:28:28.381Z,6.60
2018-01-21T23:30:56.728Z,6.60
2018-01-21T23:33:26.025Z,6.40
2018-01-21T23:35:54.423Z,6.03
2018-01-21T23:38:22.781Z,5.97
2018-01-21T23:40:56.629Z,6.03
2018-01-21T23:43:27.828Z,5.77
2018-01-21T23:46:02.677Z,7.00
2018-01-21T23:48:34.129Z,5.37
2018-01-21T23:51:07.435Z,5.60
2018-01-21T23:53:35.805Z,6.17
2018-01-21T23:56:07.862Z,5.83
2018-01-21T23:58:36.227Z,6.20
